sensor_id;sensor_type;location;lat;lon;timestamp;pressure;altitude;pressure_sealevel;temperature;humidity
61900;BME280;47853;55.890;37.664;2024-02-14T00:00:04;100225.63;;;-9.71;95.53
61900;BME280;47853;55.890;37.664;2024-02-14T00:02:29;100245.59;;;-9.26;93.25
61900;BME280;47853;55.890;37.664;2024-02-14T00:04:55;100225.25;;;-9.42;91.81
61900;BME280;47853;55.890;37.664;2024-02-14T00:07:21;100247.41;;;-9.33;96.12
61900;BME280;47853;55.890;37.664;2024-02-14T00:09:47;100223.03;;;-9.71;93.61
61900;BME280;47853;55.890;37.664;2024-02-14T00:12:13;100237.78;;;-9.87;95.73
61900;BME280;47853;55.890;37.664;2024-02-14T00:14:41;100255.13;;;-10.08;97.27
61900;BME280;47853;55.890;37.664;2024-02-14T00:17:07;100239.31;;;-9.72;96.61
61900;BME280;47853;55.890;37.664;2024-02-14T00:19:32;100225.28;;;-9.45;93.49
61900;BME280;47853;55.890;37.664;2024-02-14T00:21:58;100202.50;;;-10.51;95.33
61900;BME280;47853;55.890;37.664;2024-02-14T00:24:23;100231.03;;;-9.96;96.88
61900;BME280;47853;55.890;37.664;2024-02-14T00:26:49;100233.09;;;-9.54;95.35
61900;BME280;47853;55.890;37.664;2024-02-14T00:29:15;100214.19;;;-10.24;97.04
61900;BME280;47853;55.890;37.664;2024-02-14T00:34:19;100220.44;;;-10.48;98.91
61900;BME280;47853;55.890;37.664;2024-02-14T00:36:45;100243.00;;;-9.97;98.38
61900;BME280;47853;55.890;37.664;2024-02-14T00:39:10;100251.34;;;-9.74;99.44
61900;BME280;47853;55.890;37.664;2024-02-14T00:41:36;100252.03;;;-10.41;100.00
61900;BME280;47853;55.890;37.664;2024-02-14T00:44:02;100248.03;;;-9.15;95.03
61900;BME280;47853;55.890;37.664;2024-02-14T00:46:27;100251.38;;;-9.76;93.23
61900;BME280;47853;55.890;37.664;2024-02-14T00:48:54;100251.78;;;-9.41;94.58
61900;BME280;47853;55.890;37.664;2024-02-14T00:51:19;100251.41;;;-9.81;91.78
61900;BME280;47853;55.890;37.664;2024-02-14T00:53:44;100229.66;;;-10.31;97.78
61900;BME280;47853;55.890;37.664;2024-02-14T00:56:10;100248.31;;;-10.12;98.67
61900;BME280;47853;55.890;37.664;2024-02-14T00:58:35;100244.25;;;-9.55;94.18
61900;BME280;47853;55.890;37.664;2024-02-14T01:01:01;100256.69;;;-9.21;90.32
61900;BME280;47853;55.890;37.664;2024-02-14T01:03:26;100262.53;;;-9.79;91.55
61900;BME280;47853;55.890;37.664;2024-02-14T01:05:52;100267.06;;;-10.02;94.82
61900;BME280;47853;55.890;37.664;2024-02-14T01:08:19;100260.19;;;-10.02;94.79
61900;BME280;47853;55.890;37.664;2024-02-14T01:10:48;100239.59;;;-9.99;94.29
61900;BME280;47853;55.890;37.664;2024-02-14T01:13:13;100260.47;;;-10.27;93.09
61900;BME280;47853;55.890;37.664;2024-02-14T01:15:38;100245.84;;;-10.22;95.81
61900;BME280;47853;55.890;37.664;2024-02-14T01:18:04;100271.19;;;-9.84;94.53
61900;BME280;47853;55.890;37.664;2024-02-14T01:20:29;100273.44;;;-9.59;93.68
61900;BME280;47853;55.890;37.664;2024-02-14T01:22:55;100273.09;;;-10.03;90.34
61900;BME280;47853;55.890;37.664;2024-02-14T01:25:20;100276.69;;;-10.22;93.88
61900;BME280;47853;55.890;37.664;2024-02-14T01:27:46;100247.94;;;-10.63;94.93
61900;BME280;47853;55.890;37.664;2024-02-14T01:30:11;100271.06;;;-9.75;96.15
61900;BME280;47853;55.890;37.664;2024-02-14T01:32:37;100280.88;;;-9.36;92.61
61900;BME280;47853;55.890;37.664;2024-02-14T01:35:03;100288.13;;;-9.68;90.12
61900;BME280;47853;55.890;37.664;2024-02-14T01:37:32;100278.53;;;-10.38;93.89
61900;BME280;47853;55.890;37.664;2024-02-14T01:39:57;100256.66;;;-10.81;95.44
61900;BME280;47853;55.890;37.664;2024-02-14T01:42:23;100295.81;;;-10.52;95.84
61900;BME280;47853;55.890;37.664;2024-02-14T01:44:48;100257.38;;;-9.79;92.42
61900;BME280;47853;55.890;37.664;2024-02-14T01:47:13;100265.25;;;-9.91;92.75
61900;BME280;47853;55.890;37.664;2024-02-14T01:49:39;100282.13;;;-10.56;91.72
61900;BME280;47853;55.890;37.664;2024-02-14T01:52:05;100284.28;;;-10.11;94.12
61900;BME280;47853;55.890;37.664;2024-02-14T01:54:31;100295.00;;;-9.70;91.59
61900;BME280;47853;55.890;37.664;2024-02-14T01:56:57;100278.13;;;-10.93;94.24
61900;BME280;47853;55.890;37.664;2024-02-14T01:59:23;100268.13;;;-10.25;95.03
61900;BME280;47853;55.890;37.664;2024-02-14T02:01:49;100295.44;;;-10.12;91.66
61900;BME280;47853;55.890;37.664;2024-02-14T02:04:14;100280.47;;;-10.65;93.61
61900;BME280;47853;55.890;37.664;2024-02-14T02:06:40;100289.94;;;-10.68;93.78
61900;BME280;47853;55.890;37.664;2024-02-14T02:09:05;100311.56;;;-11.07;96.75
61900;BME280;47853;55.890;37.664;2024-02-14T02:11:50;100319.09;;;-10.75;97.63
61900;BME280;47853;55.890;37.664;2024-02-14T02:14:16;100328.97;;;-10.29;98.41
61900;BME280;47853;55.890;37.664;2024-02-14T02:16:42;100324.31;;;-9.88;95.90
61900;BME280;47853;55.890;37.664;2024-02-14T02:19:08;100328.66;;;-11.04;93.71
61900;BME280;47853;55.890;37.664;2024-02-14T02:21:33;100325.91;;;-10.76;97.71
61900;BME280;47853;55.890;37.664;2024-02-14T02:23:59;100313.97;;;-10.85;94.20
61900;BME280;47853;55.890;37.664;2024-02-14T02:26:24;100326.84;;;-10.86;95.32
61900;BME280;47853;55.890;37.664;2024-02-14T02:28:49;100336.38;;;-11.09;97.24
61900;BME280;47853;55.890;37.664;2024-02-14T02:31:15;100331.09;;;-10.82;97.14
61900;BME280;47853;55.890;37.664;2024-02-14T02:33:40;100328.63;;;-10.98;97.91
61900;BME280;47853;55.890;37.664;2024-02-14T02:36:06;100327.72;;;-10.95;96.83
61900;BME280;47853;55.890;37.664;2024-02-14T02:38:31;100333.66;;;-10.84;97.26
61900;BME280;47853;55.890;37.664;2024-02-14T02:40:57;100319.06;;;-10.77;95.54
61900;BME280;47853;55.890;37.664;2024-02-14T02:43:22;100307.94;;;-10.76;93.97
61900;BME280;47853;55.890;37.664;2024-02-14T02:45:48;100346.63;;;-9.88;93.39
61900;BME280;47853;55.890;37.664;2024-02-14T02:48:13;100346.59;;;-11.07;95.28
61900;BME280;47853;55.890;37.664;2024-02-14T02:50:38;100332.47;;;-10.38;94.63
61900;BME280;47853;55.890;37.664;2024-02-14T02:53:04;100302.50;;;-10.39;91.25
61900;BME280;47853;55.890;37.664;2024-02-14T02:55:29;100328.81;;;-11.43;94.88
61900;BME280;47853;55.890;37.664;2024-02-14T02:57:56;100347.41;;;-10.97;98.35
61900;BME280;47853;55.890;37.664;2024-02-14T03:00:21;100327.88;;;-11.23;98.25
61900;BME280;47853;55.890;37.664;2024-02-14T03:02:47;100346.38;;;-10.62;95.10
61900;BME280;47853;55.890;37.664;2024-02-14T03:05:12;100313.56;;;-11.85;96.99
61900;BME280;47853;55.890;37.664;2024-02-14T03:07:38;100350.88;;;-11.03;98.45
61900;BME280;47853;55.890;37.664;2024-02-14T03:10:04;100349.03;;;-10.77;95.65
61900;BME280;47853;55.890;37.664;2024-02-14T03:12:29;100352.66;;;-9.94;94.28
61900;BME280;47853;55.890;37.664;2024-02-14T03:14:55;100348.88;;;-10.56;92.14
61900;BME280;47853;55.890;37.664;2024-02-14T03:17:20;100366.34;;;-11.20;93.58
61900;BME280;47853;55.890;37.664;2024-02-14T03:19:46;100370.69;;;-11.42;95.32
61900;BME280;47853;55.890;37.664;2024-02-14T03:22:11;100343.34;;;-11.43;96.99
61900;BME280;47853;55.890;37.664;2024-02-14T03:24:36;100351.00;;;-11.31;96.86
61900;BME280;47853;55.890;37.664;2024-02-14T03:27:03;100368.94;;;-11.31;98.50
61900;BME280;47853;55.890;37.664;2024-02-14T03:29:28;100365.06;;;-10.44;95.21
61900;BME280;47853;55.890;37.664;2024-02-14T03:31:53;100371.44;;;-11.12;93.16
61900;BME280;47853;55.890;37.664;2024-02-14T03:34:19;100377.19;;;-10.65;95.61
61900;BME280;47853;55.890;37.664;2024-02-14T03:36:44;100356.88;;;-11.04;93.19
61900;BME280;47853;55.890;37.664;2024-02-14T03:39:10;100351.03;;;-11.40;94.12
61900;BME280;47853;55.890;37.664;2024-02-14T03:41:38;100361.09;;;-10.90;94.61
61900;BME280;47853;55.890;37.664;2024-02-14T03:44:04;100373.22;;;-11.25;93.66
61900;BME280;47853;55.890;37.664;2024-02-14T03:46:29;100360.50;;;-11.73;95.23
61900;BME280;47853;55.890;37.664;2024-02-14T03:48:55;100351.97;;;-11.80;96.86
61900;BME280;47853;55.890;37.664;2024-02-14T03:51:23;100377.59;;;-11.97;99.85
61900;BME280;47853;55.890;37.664;2024-02-14T03:53:49;100368.19;;;-11.64;99.57
61900;BME280;47853;55.890;37.664;2024-02-14T03:56:14;100362.03;;;-11.09;96.99
61900;BME280;47853;55.890;37.664;2024-02-14T03:58:39;100380.94;;;-11.38;96.62
61900;BME280;47853;55.890;37.664;2024-02-14T04:01:05;100370.50;;;-10.97;93.85
61900;BME280;47853;55.890;37.664;2024-02-14T04:03:30;100398.91;;;-11.42;93.91
61900;BME280;47853;55.890;37.664;2024-02-14T04:05:56;100390.44;;;-11.96;96.41
61900;BME280;47853;55.890;37.664;2024-02-14T04:08:22;100385.94;;;-11.03;96.95
61900;BME280;47853;55.890;37.664;2024-02-14T04:10:48;100359.75;;;-12.11;96.49
61900;BME280;47853;55.890;37.664;2024-02-14T04:13:13;100395.56;;;-12.17;100.00
61900;BME280;47853;55.890;37.664;2024-02-14T04:15:39;100371.69;;;-12.01;100.00
61900;BME280;47853;55.890;37.664;2024-02-14T04:18:04;100394.69;;;-11.98;100.00
61900;BME280;47853;55.890;37.664;2024-02-14T04:20:30;100392.09;;;-11.76;99.96
61900;BME280;47853;55.890;37.664;2024-02-14T04:22:58;100375.88;;;-11.81;100.00
61900;BME280;47853;55.890;37.664;2024-02-14T04:25:24;100341.81;;;-12.19;99.60
61900;BME280;47853;55.890;37.664;2024-02-14T04:27:49;100412.63;;;-11.85;100.00
61900;BME280;47853;55.890;37.664;2024-02-14T04:30:15;100387.03;;;-12.47;100.00
61900;BME280;47853;55.890;37.664;2024-02-14T04:32:40;100402.44;;;-12.13;100.00
61900;BME280;47853;55.890;37.664;2024-02-14T04:35:06;100401.50;;;-11.75;99.71
61900;BME280;47853;55.890;37.664;2024-02-14T04:37:31;100392.97;;;-11.83;100.00
61900;BME280;47853;55.890;37.664;2024-02-14T04:43:00;100362.28;;;-12.42;100.00
61900;BME280;47853;55.890;37.664;2024-02-14T04:45:25;100311.06;;;-12.53;100.00
61900;BME280;47853;55.890;37.664;2024-02-14T04:47:51;100352.03;;;-12.51;100.00
61900;BME280;47853;55.890;37.664;2024-02-14T04:50:16;100404.97;;;-12.16;100.00
61900;BME280;47853;55.890;37.664;2024-02-14T04:52:42;100338.34;;;-12.75;99.43
61900;BME280;47853;55.890;37.664;2024-02-14T04:55:08;100402.38;;;-11.74;99.61
61900;BME280;47853;55.890;37.664;2024-02-14T04:57:33;100422.03;;;-12.35;97.02
61900;BME280;47853;55.890;37.664;2024-02-14T04:59:58;100429.72;;;-12.35;100.00
61900;BME280;47853;55.890;37.664;2024-02-14T05:02:24;100435.72;;;-11.93;100.00
61900;BME280;47853;55.890;37.664;2024-02-14T05:04:49;100425.44;;;-11.67;95.84
61900;BME280;47853;55.890;37.664;2024-02-14T05:07:15;100446.78;;;-12.17;95.80
61900;BME280;47853;55.890;37.664;2024-02-14T05:09:40;100454.47;;;-11.77;95.69
61900;BME280;47853;55.890;37.664;2024-02-14T05:12:06;100447.59;;;-12.54;95.34
61900;BME280;47853;55.890;37.664;2024-02-14T05:14:31;100443.34;;;-11.73;97.84
61900;BME280;47853;55.890;37.664;2024-02-14T05:16:56;100428.00;;;-12.33;96.06
61900;BME280;47853;55.890;37.664;2024-02-14T05:19:22;100444.22;;;-11.89;95.48
61900;BME280;47853;55.890;37.664;2024-02-14T05:21:48;100450.22;;;-12.20;97.55
61900;BME280;47853;55.890;37.664;2024-02-14T05:24:14;100451.91;;;-12.25;97.62
61900;BME280;47853;55.890;37.664;2024-02-14T05:26:39;100453.63;;;-11.85;96.36
61900;BME280;47853;55.890;37.664;2024-02-14T05:29:05;100447.66;;;-11.93;94.97
61900;BME280;47853;55.890;37.664;2024-02-14T05:31:43;100463.03;;;-11.87;92.36
61900;BME280;47853;55.890;37.664;2024-02-14T05:34:09;100425.44;;;-12.26;92.01
61900;BME280;47853;55.890;37.664;2024-02-14T05:36:37;100463.00;;;-11.61;93.18
61900;BME280;47853;55.890;37.664;2024-02-14T05:39:03;100450.22;;;-12.01;91.46
61900;BME280;47853;55.890;37.664;2024-02-14T05:41:29;100453.56;;;-12.46;93.83
61900;BME280;47853;55.890;37.664;2024-02-14T05:43:54;100457.06;;;-12.19;95.21
61900;BME280;47853;55.890;37.664;2024-02-14T05:46:20;100447.59;;;-11.41;92.60
61900;BME280;47853;55.890;37.664;2024-02-14T05:48:45;100434.81;;;-11.42;88.53
61900;BME280;47853;55.890;37.664;2024-02-14T05:51:10;100473.28;;;-11.76;88.93
61900;BME280;47853;55.890;37.664;2024-02-14T05:53:36;100481.81;;;-11.45;89.85
61900;BME280;47853;55.890;37.664;2024-02-14T05:56:01;100474.13;;;-11.46;88.09
61900;BME280;47853;55.890;37.664;2024-02-14T05:58:27;100471.53;;;-11.20;87.38
61900;BME280;47853;55.890;37.664;2024-02-14T06:00:52;100478.34;;;-11.31;86.60
61900;BME280;47853;55.890;37.664;2024-02-14T06:03:18;100453.53;;;-11.11;86.68
61900;BME280;47853;55.890;37.664;2024-02-14T06:05:43;100453.59;;;-11.42;86.48
61900;BME280;47853;55.890;37.664;2024-02-14T06:08:09;100482.59;;;-11.01;87.11
61900;BME280;47853;55.890;37.664;2024-02-14T06:10:34;100484.94;;;-10.50;84.41
61900;BME280;47853;55.890;37.664;2024-02-14T06:13:00;100465.28;;;-10.54;80.47
61900;BME280;47853;55.890;37.664;2024-02-14T06:15:25;100493.50;;;-10.43;81.29
61900;BME280;47853;55.890;37.664;2024-02-14T06:17:52;100479.16;;;-10.98;81.29
61900;BME280;47853;55.890;37.664;2024-02-14T06:20:18;100484.38;;;-11.34;82.96
61900;BME280;47853;55.890;37.664;2024-02-14T06:22:43;100479.97;;;-10.87;82.17
61900;BME280;47853;55.890;37.664;2024-02-14T06:25:09;100480.09;;;-11.52;85.00
61900;BME280;47853;55.890;37.664;2024-02-14T06:27:34;100495.47;;;-11.33;85.94
61900;BME280;47853;55.890;37.664;2024-02-14T06:30:00;100473.28;;;-12.14;87.87
61900;BME280;47853;55.890;37.664;2024-02-14T06:32:25;100486.91;;;-11.25;88.18
61900;BME280;47853;55.890;37.664;2024-02-14T06:34:50;100466.28;;;-10.89;84.37
61900;BME280;47853;55.890;37.664;2024-02-14T06:37:16;100486.03;;;-11.16;85.99
61900;BME280;47853;55.890;37.664;2024-02-14T06:39:41;100496.22;;;-10.79;84.19
61900;BME280;47853;55.890;37.664;2024-02-14T06:42:07;100490.09;;;-10.48;81.57
61900;BME280;47853;55.890;37.664;2024-02-14T06:44:32;100492.50;;;-10.26;79.93
61900;BME280;47853;55.890;37.664;2024-02-14T06:46:58;100493.19;;;-9.98;78.05
61900;BME280;47853;55.890;37.664;2024-02-14T06:49:23;100481.34;;;-10.22;77.12
61900;BME280;47853;55.890;37.664;2024-02-14T06:51:49;100442.75;;;-10.10;76.30
61900;BME280;47853;55.890;37.664;2024-02-14T06:54:14;100480.69;;;-10.52;76.22
61900;BME280;47853;55.890;37.664;2024-02-14T06:56:39;100495.19;;;-10.42;76.48
61900;BME280;47853;55.890;37.664;2024-02-14T06:59:05;100488.84;;;-9.88;76.05
61900;BME280;47853;55.890;37.664;2024-02-14T07:01:30;100497.63;;;-10.23;75.14
61900;BME280;47853;55.890;37.664;2024-02-14T07:03:56;100491.78;;;-10.45;77.17
61900;BME280;47853;55.890;37.664;2024-02-14T07:06:22;100505.69;;;-9.50;75.27
61900;BME280;47853;55.890;37.664;2024-02-14T07:08:47;100503.28;;;-9.70;75.57
61900;BME280;47853;55.890;37.664;2024-02-14T07:11:16;100502.53;;;-9.86;74.79
61900;BME280;47853;55.890;37.664;2024-02-14T07:13:42;100500.84;;;-8.92;74.16
61900;BME280;47853;55.890;37.664;2024-02-14T07:16:07;100490.38;;;-8.75;69.54
61900;BME280;47853;55.890;37.664;2024-02-14T07:18:36;100501.41;;;-9.46;70.32
61900;BME280;47853;55.890;37.664;2024-02-14T07:21:01;100476.56;;;-8.70;70.63
61900;BME280;47853;55.890;37.664;2024-02-14T07:23:27;100502.16;;;-8.55;68.17
61900;BME280;47853;55.890;37.664;2024-02-14T07:25:53;100496.81;;;-8.44;66.69
61900;BME280;47853;55.890;37.664;2024-02-14T07:28:18;100508.41;;;-8.09;67.51
61900;BME280;47853;55.890;37.664;2024-02-14T07:30:44;100492.03;;;-8.69;65.66
61900;BME280;47853;55.890;37.664;2024-02-14T07:33:09;100491.00;;;-8.55;67.85
61900;BME280;47853;55.890;37.664;2024-02-14T07:35:36;100505.72;;;-8.01;66.23
61900;BME280;47853;55.890;37.664;2024-02-14T07:38:02;100505.03;;;-8.14;67.08
61900;BME280;47853;55.890;37.664;2024-02-14T07:40:27;100494.69;;;-8.75;67.56
61900;BME280;47853;55.890;37.664;2024-02-14T07:42:53;100487.25;;;-8.33;67.44
61900;BME280;47853;55.890;37.664;2024-02-14T07:45:21;100499.09;;;-8.19;66.63
61900;BME280;47853;55.890;37.664;2024-02-14T07:47:49;100511.16;;;-7.62;64.03
61900;BME280;47853;55.890;37.664;2024-02-14T07:50:15;100458.53;;;-8.08;64.21
61900;BME280;47853;55.890;37.664;2024-02-14T07:52:44;100404.94;;;-9.11;65.90
61900;BME280;47853;55.890;37.664;2024-02-14T07:55:10;100381.19;;;-8.64;64.45
61900;BME280;47853;55.890;37.664;2024-02-14T07:57:35;100501.72;;;-8.22;65.82
61900;BME280;47853;55.890;37.664;2024-02-14T08:00:01;100485.13;;;-8.67;67.43
61900;BME280;47853;55.890;37.664;2024-02-14T08:02:26;100512.44;;;-7.36;66.08
61900;BME280;47853;55.890;37.664;2024-02-14T08:04:52;100499.25;;;-7.19;64.03
61900;BME280;47853;55.890;37.664;2024-02-14T08:07:17;100503.56;;;-7.71;63.91
61900;BME280;47853;55.890;37.664;2024-02-14T08:09:42;100509.25;;;-7.50;64.07
61900;BME280;47853;55.890;37.664;2024-02-14T08:12:08;100504.69;;;-7.89;63.52
61900;BME280;47853;55.890;37.664;2024-02-14T08:14:33;100507.78;;;-7.15;64.96
61900;BME280;47853;55.890;37.664;2024-02-14T08:16:59;100503.13;;;-7.45;64.41
61900;BME280;47853;55.890;37.664;2024-02-14T08:19:24;100504.28;;;-6.65;62.84
61900;BME280;47853;55.890;37.664;2024-02-14T08:21:49;100517.53;;;-6.38;61.36
61900;BME280;47853;55.890;37.664;2024-02-14T08:24:15;100509.66;;;-6.32;60.84
61900;BME280;47853;55.890;37.664;2024-02-14T08:26:40;100516.19;;;-6.58;60.13
61900;BME280;47853;55.890;37.664;2024-02-14T08:29:06;100507.06;;;-5.94;59.69
61900;BME280;47853;55.890;37.664;2024-02-14T08:31:32;100522.91;;;-5.00;57.22
61900;BME280;47853;55.890;37.664;2024-02-14T08:33:57;100519.97;;;-4.86;55.39
61900;BME280;47853;55.890;37.664;2024-02-14T08:36:23;100522.09;;;-5.36;56.04
61900;BME280;47853;55.890;37.664;2024-02-14T08:38:48;100522.94;;;-6.95;57.17
61900;BME280;47853;55.890;37.664;2024-02-14T08:41:14;100528.03;;;-6.48;60.07
61900;BME280;47853;55.890;37.664;2024-02-14T08:43:40;100458.13;;;-7.81;60.12
61900;BME280;47853;55.890;37.664;2024-02-14T08:46:10;100502.09;;;-6.87;61.76
61900;BME280;47853;55.890;37.664;2024-02-14T08:48:35;100515.59;;;-6.29;59.48
61900;BME280;47853;55.890;37.664;2024-02-14T08:51:01;100526.34;;;-6.93;59.76
61900;BME280;47853;55.890;37.664;2024-02-14T08:53:26;100528.78;;;-6.41;60.36
61900;BME280;47853;55.890;37.664;2024-02-14T08:55:52;100533.22;;;-6.48;59.59
61900;BME280;47853;55.890;37.664;2024-02-14T08:58:17;100532.13;;;-5.59;59.29
61900;BME280;47853;55.890;37.664;2024-02-14T09:00:42;100528.34;;;-6.62;59.46
61900;BME280;47853;55.890;37.664;2024-02-14T09:03:08;100518.44;;;-6.85;61.08
61900;BME280;47853;55.890;37.664;2024-02-14T09:05:33;100527.34;;;-7.02;61.19
61900;BME280;47853;55.890;37.664;2024-02-14T09:07:59;100536.41;;;-6.35;61.12
61900;BME280;47853;55.890;37.664;2024-02-14T09:10:24;100494.75;;;-6.63;61.34
61900;BME280;47853;55.890;37.664;2024-02-14T09:12:50;100546.41;;;-5.80;59.94
61900;BME280;47853;55.890;37.664;2024-02-14T09:15:15;100538.19;;;-6.82;59.02
61900;BME280;47853;55.890;37.664;2024-02-14T09:17:41;100530.81;;;-7.03;61.95
61900;BME280;47853;55.890;37.664;2024-02-14T09:20:09;100545.06;;;-6.81;61.53
61900;BME280;47853;55.890;37.664;2024-02-14T09:22:36;100548.00;;;-7.00;62.41
61900;BME280;47853;55.890;37.664;2024-02-14T09:25:01;100516.94;;;-7.47;62.87
61900;BME280;47853;55.890;37.664;2024-02-14T09:27:27;100544.72;;;-6.20;63.15
61900;BME280;47853;55.890;37.664;2024-02-14T09:29:52;100534.56;;;-5.90;60.02
61900;BME280;47853;55.890;37.664;2024-02-14T09:32:18;100529.53;;;-6.36;60.98
61900;BME280;47853;55.890;37.664;2024-02-14T09:34:46;100527.59;;;-6.68;60.79
61900;BME280;47853;55.890;37.664;2024-02-14T09:37:15;100540.53;;;-5.87;60.50
61900;BME280;47853;55.890;37.664;2024-02-14T09:39:41;100542.16;;;-5.45;58.72
61900;BME280;47853;55.890;37.664;2024-02-14T09:42:09;100540.75;;;-5.58;57.95
61900;BME280;47853;55.890;37.664;2024-02-14T09:44:35;100515.00;;;-5.64;57.61
61900;BME280;47853;55.890;37.664;2024-02-14T09:47:04;100544.38;;;-5.65;57.89
61900;BME280;47853;55.890;37.664;2024-02-14T09:49:33;100540.63;;;-5.17;58.21
61900;BME280;47853;55.890;37.664;2024-02-14T09:52:01;100546.50;;;-5.47;57.88
61900;BME280;47853;55.890;37.664;2024-02-14T09:54:31;100544.16;;;-5.21;57.65
61900;BME280;47853;55.890;37.664;2024-02-14T09:57:00;100526.63;;;-5.45;58.22
61900;BME280;47853;55.890;37.664;2024-02-14T10:00:00;100507.59;;;-5.80;57.39
61900;BME280;47853;55.890;37.664;2024-02-14T10:02:25;100546.44;;;-5.44;56.96
61900;BME280;47853;55.890;37.664;2024-02-14T10:04:51;100544.63;;;-5.04;56.46
61900;BME280;47853;55.890;37.664;2024-02-14T10:07:16;100546.47;;;-4.76;56.48
61900;BME280;47853;55.890;37.664;2024-02-14T10:09:42;100545.84;;;-5.55;58.03
61900;BME280;47853;55.890;37.664;2024-02-14T10:12:09;100519.38;;;-5.30;57.77
61900;BME280;47853;55.890;37.664;2024-02-14T10:14:35;100528.94;;;-4.66;56.23
61900;BME280;47853;55.890;37.664;2024-02-14T10:17:01;100542.22;;;-5.48;57.26
61900;BME280;47853;55.890;37.664;2024-02-14T10:19:26;100521.78;;;-5.98;58.65
61900;BME280;47853;55.890;37.664;2024-02-14T10:21:59;100545.91;;;-6.35;61.03
61900;BME280;47853;55.890;37.664;2024-02-14T10:24:26;100550.78;;;-5.82;60.48
61900;BME280;47853;55.890;37.664;2024-02-14T10:26:51;100534.34;;;-5.81;60.36
61900;BME280;47853;55.890;37.664;2024-02-14T10:29:17;100539.88;;;-5.95;61.20
61900;BME280;47853;55.890;37.664;2024-02-14T10:31:43;100534.97;;;-5.33;60.50
61900;BME280;47853;55.890;37.664;2024-02-14T10:34:09;100546.91;;;-5.26;58.99
61900;BME280;47853;55.890;37.664;2024-02-14T10:36:36;100529.31;;;-5.87;60.62
61900;BME280;47853;55.890;37.664;2024-02-14T10:39:01;100531.00;;;-5.85;60.38
61900;BME280;47853;55.890;37.664;2024-02-14T10:41:27;100545.50;;;-5.77;61.48
61900;BME280;47853;55.890;37.664;2024-02-14T10:43:55;100541.56;;;-5.56;61.37
61900;BME280;47853;55.890;37.664;2024-02-14T10:46:23;100536.59;;;-6.03;62.42
61900;BME280;47853;55.890;37.664;2024-02-14T10:48:58;100518.88;;;-6.20;62.90
61900;BME280;47853;55.890;37.664;2024-02-14T10:51:34;100494.28;;;-6.38;63.71
61900;BME280;47853;55.890;37.664;2024-02-14T10:54:04;100523.47;;;-5.94;64.13
61900;BME280;47853;55.890;37.664;2024-02-14T10:56:33;100485.25;;;-6.20;62.55
61900;BME280;47853;55.890;37.664;2024-02-14T10:58:59;100490.50;;;-5.87;62.01
61900;BME280;47853;55.890;37.664;2024-02-14T11:01:29;100522.63;;;-5.58;62.97
61900;BME280;47853;55.890;37.664;2024-02-14T11:03:55;100501.78;;;-5.52;62.74
61900;BME280;47853;55.890;37.664;2024-02-14T11:06:20;100547.47;;;-5.49;62.22
61900;BME280;47853;55.890;37.664;2024-02-14T11:09:00;100537.06;;;-5.13;60.63
61900;BME280;47853;55.890;37.664;2024-02-14T11:11:28;100544.72;;;-5.43;60.32
61900;BME280;47853;55.890;37.664;2024-02-14T11:13:54;100549.56;;;-4.95;60.22
61900;BME280;47853;55.890;37.664;2024-02-14T11:16:25;100515.34;;;-5.42;59.44
61900;BME280;47853;55.890;37.664;2024-02-14T11:18:51;100543.00;;;-5.44;61.15
61900;BME280;47853;55.890;37.664;2024-02-14T11:21:17;100549.91;;;-5.43;62.20
61900;BME280;47853;55.890;37.664;2024-02-14T11:23:52;100521.81;;;-4.91;60.39
61900;BME280;47853;55.890;37.664;2024-02-14T11:26:18;100545.09;;;-4.56;59.15
61900;BME280;47853;55.890;37.664;2024-02-14T11:28:43;100530.47;;;-4.92;57.87
61900;BME280;47853;55.890;37.664;2024-02-14T11:31:10;100543.84;;;-5.09;59.97
61900;BME280;47853;55.890;37.664;2024-02-14T11:33:36;100543.69;;;-5.36;59.96
61900;BME280;47853;55.890;37.664;2024-02-14T11:36:08;100536.50;;;-4.58;58.72
61900;BME280;47853;55.890;37.664;2024-02-14T11:38:33;100532.31;;;-3.74;56.77
61900;BME280;47853;55.890;37.664;2024-02-14T11:40:59;100534.00;;;-4.31;56.36
61900;BME280;47853;55.890;37.664;2024-02-14T11:43:24;100537.06;;;-4.80;58.04
61900;BME280;47853;55.890;37.664;2024-02-14T11:45:50;100532.03;;;-5.19;58.63
61900;BME280;47853;55.890;37.664;2024-02-14T11:48:16;100553.00;;;-5.29;59.33
61900;BME280;47853;55.890;37.664;2024-02-14T11:50:44;100545.25;;;-4.96;59.86
61900;BME280;47853;55.890;37.664;2024-02-14T11:53:14;100531.63;;;-5.37;59.68
61900;BME280;47853;55.890;37.664;2024-02-14T11:55:40;100548.22;;;-5.46;61.34
61900;BME280;47853;55.890;37.664;2024-02-14T11:58:16;100523.03;;;-5.04;60.79
61900;BME280;47853;55.890;37.664;2024-02-14T12:00:46;100548.03;;;-5.76;60.61
61900;BME280;47853;55.890;37.664;2024-02-14T12:03:16;100532.97;;;-5.58;60.51
61900;BME280;47853;55.890;37.664;2024-02-14T12:05:42;100542.78;;;-5.00;60.88
61900;BME280;47853;55.890;37.664;2024-02-14T12:08:12;100495.41;;;-5.75;60.37
61900;BME280;47853;55.890;37.664;2024-02-14T12:10:37;100479.53;;;-5.97;61.86
61900;BME280;47853;55.890;37.664;2024-02-14T12:13:10;100546.44;;;-4.74;61.01
61900;BME280;47853;55.890;37.664;2024-02-14T12:15:40;100546.72;;;-4.85;60.09
61900;BME280;47853;55.890;37.664;2024-02-14T12:18:07;100525.25;;;-4.57;59.67
61900;BME280;47853;55.890;37.664;2024-02-14T12:20:36;100513.91;;;-5.54;62.36
61900;BME280;47853;55.890;37.664;2024-02-14T12:23:02;100542.78;;;-6.10;62.95
61900;BME280;47853;55.890;37.664;2024-02-14T12:25:29;100518.00;;;-5.82;64.27
61900;BME280;47853;55.890;37.664;2024-02-14T12:27:59;100533.81;;;-5.94;64.81
61900;BME280;47853;55.890;37.664;2024-02-14T12:30:44;100543.00;;;-5.44;63.64
61900;BME280;47853;55.890;37.664;2024-02-14T12:33:14;100524.63;;;-6.07;63.39
61900;BME280;47853;55.890;37.664;2024-02-14T12:35:47;100544.47;;;-5.70;64.49